sensor_id;sensor_type;location;lat;lon;timestamp;P1;durP1;ratioP1;P2;durP2;ratioP2
5137;SDS011;53959;53.626;11.410;2022-08-25T00:01:00;10.20;;;4.67;;
5137;SDS011;53959;53.626;11.410;2022-08-25T00:03:26;11.43;;;4.63;;
5137;SDS011;53959;53.626;11.410;2022-08-25T00:05:52;9.87;;;5.83;;
5137;SDS011;53959;53.626;11.410;2022-08-25T00:08:17;10.10;;;5.00;;
5137;SDS011;53959;53.626;11.410;2022-08-25T00:10:43;15.77;;;5.20;;
5137;SDS011;53959;53.626;11.410;2022-08-25T00:13:09;11.10;;;4.80;;
5137;SDS011;53959;53.626;11.410;2022-08-25T00:15:35;9.77;;;4.70;;
5137;SDS011;53959;53.626;11.410;2022-08-25T00:18:02;9.30;;;5.40;;
5137;SDS011;53959;53.626;11.410;2022-08-25T00:20:28;10.43;;;6.00;;
5137;SDS011;53959;53.626;11.410;2022-08-25T00:22:54;8.07;;;5.67;;
5137;SDS011;53959;53.626;11.410;2022-08-25T00:25:20;11.80;;;6.60;;
5137;SDS011;53959;53.626;11.410;2022-08-25T00:27:47;10.30;;;6.40;;
5137;SDS011;53959;53.626;11.410;2022-08-25T00:30:14;8.27;;;5.97;;
5137;SDS011;53959;53.626;11.410;2022-08-25T00:32:40;9.00;;;5.90;;
5137;SDS011;53959;53.626;11.410;2022-08-25T00:35:06;14.70;;;6.33;;
5137;SDS011;53959;53.626;11.410;2022-08-25T00:37:31;9.90;;;5.90;;
5137;SDS011;53959;53.626;11.410;2022-08-25T00:39:57;14.80;;;7.17;;
5137;SDS011;53959;53.626;11.410;2022-08-25T00:42:23;20.93;;;7.37;;
5137;SDS011;53959;53.626;11.410;2022-08-25T00:44:49;13.33;;;7.00;;
5137;SDS011;53959;53.626;11.410;2022-08-25T00:47:15;12.73;;;6.83;;
5137;SDS011;53959;53.626;11.410;2022-08-25T00:49:42;10.80;;;7.10;;
5137;SDS011;53959;53.626;11.410;2022-08-25T00:52:15;15.20;;;7.40;;
5137;SDS011;53959;53.626;11.410;2022-08-25T00:54:45;11.10;;;7.73;;
5137;SDS011;53959;53.626;11.410;2022-08-25T00:57:19;14.77;;;8.40;;
5137;SDS011;53959;53.626;11.410;2022-08-25T00:59:50;14.33;;;7.73;;
5137;SDS011;53959;53.626;11.410;2022-08-25T01:02:16;8.73;;;7.50;;
5137;SDS011;53959;53.626;11.410;2022-08-25T01:04:42;15.00;;;8.60;;
5137;SDS011;53959;53.626;11.410;2022-08-25T01:07:09;12.07;;;8.50;;
5137;SDS011;53959;53.626;11.410;2022-08-25T01:09:36;12.27;;;8.90;;
5137;SDS011;53959;53.626;11.410;2022-08-25T01:12:02;13.13;;;8.33;;
5137;SDS011;53959;53.626;11.410;2022-08-25T01:14:28;18.10;;;8.70;;
5137;SDS011;53959;53.626;11.410;2022-08-25T01:16:56;12.33;;;8.57;;
5137;SDS011;53959;53.626;11.410;2022-08-25T01:19:23;15.17;;;8.10;;
5137;SDS011;53959;53.626;11.410;2022-08-25T01:21:51;18.00;;;8.67;;
5137;SDS011;53959;53.626;11.410;2022-08-25T01:24:21;19.97;;;8.47;;
5137;SDS011;53959;53.626;11.410;2022-08-25T01:27:02;19.93;;;8.50;;
5137;SDS011;53959;53.626;11.410;2022-08-25T01:29:29;15.57;;;9.10;;
5137;SDS011;53959;53.626;11.410;2022-08-25T01:31:56;16.57;;;8.47;;
5137;SDS011;53959;53.626;11.410;2022-08-25T01:34:25;12.67;;;9.47;;
5137;SDS011;53959;53.626;11.410;2022-08-25T01:36:52;13.13;;;8.83;;
5137;SDS011;53959;53.626;11.410;2022-08-25T01:39:19;14.80;;;9.43;;
5137;SDS011;53959;53.626;11.410;2022-08-25T01:44:14;22.37;;;8.70;;
5137;SDS011;53959;53.626;11.410;2022-08-25T01:46:40;14.80;;;9.23;;
5137;SDS011;53959;53.626;11.410;2022-08-25T01:49:06;17.23;;;8.57;;
5137;SDS011;53959;53.626;11.410;2022-08-25T01:51:39;16.03;;;9.70;;
5137;SDS011;53959;53.626;11.410;2022-08-25T01:54:10;20.33;;;10.40;;
5137;SDS011;53959;53.626;11.410;2022-08-25T01:56:36;25.77;;;10.53;;
5137;SDS011;53959;53.626;11.410;2022-08-25T01:59:02;24.27;;;9.47;;
5137;SDS011;53959;53.626;11.410;2022-08-25T02:01:28;16.13;;;9.90;;
5137;SDS011;53959;53.626;11.410;2022-08-25T02:03:54;20.03;;;10.53;;
5137;SDS011;53959;53.626;11.410;2022-08-25T02:06:28;13.80;;;9.07;;
5137;SDS011;53959;53.626;11.410;2022-08-25T02:09:00;11.77;;;10.57;;
5137;SDS011;53959;53.626;11.410;2022-08-25T02:11:29;22.20;;;10.80;;
5137;SDS011;53959;53.626;11.410;2022-08-25T02:13:56;21.97;;;8.90;;
5137;SDS011;53959;53.626;11.410;2022-08-25T02:16:23;21.13;;;10.80;;
5137;SDS011;53959;53.626;11.410;2022-08-25T02:18:55;17.60;;;8.03;;
5137;SDS011;53959;53.626;11.410;2022-08-25T02:21:21;10.90;;;8.67;;
5137;SDS011;53959;53.626;11.410;2022-08-25T02:23:46;15.43;;;8.60;;
5137;SDS011;53959;53.626;11.410;2022-08-25T02:26:12;16.37;;;9.40;;
5137;SDS011;53959;53.626;11.410;2022-08-25T02:28:40;13.97;;;7.90;;
5137;SDS011;53959;53.626;11.410;2022-08-25T02:31:07;15.87;;;8.17;;
5137;SDS011;53959;53.626;11.410;2022-08-25T02:33:33;14.83;;;8.37;;
5137;SDS011;53959;53.626;11.410;2022-08-25T02:35:59;16.90;;;8.13;;
5137;SDS011;53959;53.626;11.410;2022-08-25T02:38:26;13.03;;;9.17;;
5137;SDS011;53959;53.626;11.410;2022-08-25T02:40:53;14.70;;;8.50;;
5137;SDS011;53959;53.626;11.410;2022-08-25T02:43:20;13.23;;;9.87;;
5137;SDS011;53959;53.626;11.410;2022-08-25T02:45:46;14.70;;;8.93;;
5137;SDS011;53959;53.626;11.410;2022-08-25T02:48:11;13.67;;;8.67;;
5137;SDS011;53959;53.626;11.410;2022-08-25T02:50:37;12.80;;;9.37;;
5137;SDS011;53959;53.626;11.410;2022-08-25T02:53:02;22.50;;;9.97;;
5137;SDS011;53959;53.626;11.410;2022-08-25T02:55:28;12.70;;;8.50;;
5137;SDS011;53959;53.626;11.410;2022-08-25T02:57:53;15.43;;;9.40;;
5137;SDS011;53959;53.626;11.410;2022-08-25T03:00:19;13.20;;;8.43;;
5137;SDS011;53959;53.626;11.410;2022-08-25T03:02:45;20.77;;;9.53;;
5137;SDS011;53959;53.626;11.410;2022-08-25T03:05:11;22.37;;;9.57;;
5137;SDS011;53959;53.626;11.410;2022-08-25T03:07:37;16.50;;;9.70;;
5137;SDS011;53959;53.626;11.410;2022-08-25T03:10:05;14.83;;;10.67;;
5137;SDS011;53959;53.626;11.410;2022-08-25T03:12:36;16.47;;;8.93;;
5137;SDS011;53959;53.626;11.410;2022-08-25T03:15:02;17.20;;;9.40;;
5137;SDS011;53959;53.626;11.410;2022-08-25T03:17:28;16.70;;;10.43;;
5137;SDS011;53959;53.626;11.410;2022-08-25T03:19:53;18.23;;;9.50;;
5137;SDS011;53959;53.626;11.410;2022-08-25T03:22:19;12.50;;;8.80;;
5137;SDS011;53959;53.626;11.410;2022-08-25T03:24:45;16.63;;;9.07;;
5137;SDS011;53959;53.626;11.410;2022-08-25T03:27:10;10.90;;;8.00;;
5137;SDS011;53959;53.626;11.410;2022-08-25T03:29:37;37.13;;;8.37;;
5137;SDS011;53959;53.626;11.410;2022-08-25T03:32:03;14.53;;;9.60;;
5137;SDS011;53959;53.626;11.410;2022-08-25T03:34:29;16.30;;;8.60;;
5137;SDS011;53959;53.626;11.410;2022-08-25T03:36:54;9.60;;;8.13;;
5137;SDS011;53959;53.626;11.410;2022-08-25T03:39:21;18.77;;;8.40;;
5137;SDS011;53959;53.626;11.410;2022-08-25T03:41:48;9.90;;;7.60;;
5137;SDS011;53959;53.626;11.410;2022-08-25T03:44:15;11.53;;;7.80;;
5137;SDS011;53959;53.626;11.410;2022-08-25T03:46:43;16.17;;;8.17;;
5137;SDS011;53959;53.626;11.410;2022-08-25T03:49:12;18.73;;;8.47;;
5137;SDS011;53959;53.626;11.410;2022-08-25T03:51:41;15.20;;;6.97;;
5137;SDS011;53959;53.626;11.410;2022-08-25T03:54:10;23.73;;;8.43;;
5137;SDS011;53959;53.626;11.410;2022-08-25T03:56:36;13.93;;;7.70;;
5137;SDS011;53959;53.626;11.410;2022-08-25T03:59:02;9.10;;;7.23;;
5137;SDS011;53959;53.626;11.410;2022-08-25T04:01:28;13.40;;;8.00;;
5137;SDS011;53959;53.626;11.410;2022-08-25T04:03:54;13.97;;;8.00;;
5137;SDS011;53959;53.626;11.410;2022-08-25T04:06:20;18.93;;;7.90;;
5137;SDS011;53959;53.626;11.410;2022-08-25T04:08:46;11.90;;;7.70;;
5137;SDS011;53959;53.626;11.410;2022-08-25T04:11:17;11.03;;;7.80;;
5137;SDS011;53959;53.626;11.410;2022-08-25T04:13:44;8.83;;;7.10;;
5137;SDS011;53959;53.626;11.410;2022-08-25T04:16:20;11.47;;;7.93;;
5137;SDS011;53959;53.626;11.410;2022-08-25T04:18:48;12.00;;;7.83;;
5137;SDS011;53959;53.626;11.410;2022-08-25T04:21:15;9.90;;;7.00;;
5137;SDS011;53959;53.626;11.410;2022-08-25T04:23:43;16.13;;;7.10;;
5137;SDS011;53959;53.626;11.410;2022-08-25T04:26:10;16.87;;;7.87;;
5137;SDS011;53959;53.626;11.410;2022-08-25T04:28:38;11.60;;;7.80;;
5137;SDS011;53959;53.626;11.410;2022-08-25T04:31:07;16.63;;;7.67;;
5137;SDS011;53959;53.626;11.410;2022-08-25T04:33:35;10.93;;;7.47;;
5137;SDS011;53959;53.626;11.410;2022-08-25T04:36:02;12.10;;;7.70;;
5137;SDS011;53959;53.626;11.410;2022-08-25T04:38:31;16.73;;;7.60;;
5137;SDS011;53959;53.626;11.410;2022-08-25T04:40:58;10.73;;;7.37;;
5137;SDS011;53959;53.626;11.410;2022-08-25T04:43:25;19.40;;;7.17;;
5137;SDS011;53959;53.626;11.410;2022-08-25T04:45:51;15.27;;;8.00;;
5137;SDS011;53959;53.626;11.410;2022-08-25T04:48:17;15.03;;;8.83;;
5137;SDS011;53959;53.626;11.410;2022-08-25T04:50:43;10.73;;;7.90;;
5137;SDS011;53959;53.626;11.410;2022-08-25T04:53:10;14.87;;;8.23;;
5137;SDS011;53959;53.626;11.410;2022-08-25T04:55:46;13.10;;;7.70;;
5137;SDS011;53959;53.626;11.410;2022-08-25T04:58:13;16.30;;;7.50;;
5137;SDS011;53959;53.626;11.410;2022-08-25T05:00:39;12.10;;;7.30;;
5137;SDS011;53959;53.626;11.410;2022-08-25T05:03:05;10.80;;;7.00;;
5137;SDS011;53959;53.626;11.410;2022-08-25T05:05:31;16.30;;;7.67;;
5137;SDS011;53959;53.626;11.410;2022-08-25T05:08:00;18.87;;;8.03;;
5137;SDS011;53959;53.626;11.410;2022-08-25T05:10:26;23.10;;;8.03;;
5137;SDS011;53959;53.626;11.410;2022-08-25T05:12:51;12.63;;;7.07;;
5137;SDS011;53959;53.626;11.410;2022-08-25T05:15:17;15.43;;;8.33;;
5137;SDS011;53959;53.626;11.410;2022-08-25T05:18:01;18.03;;;9.03;;
5137;SDS011;53959;53.626;11.410;2022-08-25T05:20:27;8.33;;;7.40;;
5137;SDS011;53959;53.626;11.410;2022-08-25T05:22:55;12.90;;;7.33;;
5137;SDS011;53959;53.626;11.410;2022-08-25T05:25:21;10.93;;;7.57;;
5137;SDS011;53959;53.626;11.410;2022-08-25T05:27:47;16.10;;;7.80;;
5137;SDS011;53959;53.626;11.410;2022-08-25T05:30:12;13.50;;;7.10;;
5137;SDS011;53959;53.626;11.410;2022-08-25T05:32:38;19.17;;;7.17;;
5137;SDS011;53959;53.626;11.410;2022-08-25T05:35:04;13.03;;;7.00;;
5137;SDS011;53959;53.626;11.410;2022-08-25T05:37:30;13.33;;;6.23;;
5137;SDS011;53959;53.626;11.410;2022-08-25T05:39:56;15.00;;;7.17;;
5137;SDS011;53959;53.626;11.410;2022-08-25T05:42:22;12.53;;;7.77;;
5137;SDS011;53959;53.626;11.410;2022-08-25T05:44:48;20.83;;;8.57;;
5137;SDS011;53959;53.626;11.410;2022-08-25T05:47:14;10.93;;;6.77;;
5137;SDS011;53959;53.626;11.410;2022-08-25T05:49:40;15.50;;;6.87;;
5137;SDS011;53959;53.626;11.410;2022-08-25T05:52:06;6.97;;;6.07;;
5137;SDS011;53959;53.626;11.410;2022-08-25T05:54:32;11.10;;;5.93;;
5137;SDS011;53959;53.626;11.410;2022-08-25T05:56:57;19.10;;;7.10;;
5137;SDS011;53959;53.626;11.410;2022-08-25T05:59:23;18.30;;;7.07;;
5137;SDS011;53959;53.626;11.410;2022-08-25T06:01:49;14.43;;;6.53;;
5137;SDS011;53959;53.626;11.410;2022-08-25T06:04:33;19.40;;;6.53;;
5137;SDS011;53959;53.626;11.410;2022-08-25T06:06:59;20.63;;;6.80;;
5137;SDS011;53959;53.626;11.410;2022-08-25T06:09:24;12.97;;;6.00;;
5137;SDS011;53959;53.626;11.410;2022-08-25T06:11:50;12.67;;;6.57;;
5137;SDS011;53959;53.626;11.410;2022-08-25T06:14:16;20.37;;;6.20;;
5137;SDS011;53959;53.626;11.410;2022-08-25T06:16:42;11.97;;;6.03;;
5137;SDS011;53959;53.626;11.410;2022-08-25T06:19:09;14.30;;;6.80;;
5137;SDS011;53959;53.626;11.410;2022-08-25T06:21:35;13.30;;;6.70;;
5137;SDS011;53959;53.626;11.410;2022-08-25T06:24:03;17.20;;;6.57;;
5137;SDS011;53959;53.626;11.410;2022-08-25T06:26:29;19.90;;;6.97;;
5137;SDS011;53959;53.626;11.410;2022-08-25T06:28:55;11.53;;;6.10;;
5137;SDS011;53959;53.626;11.410;2022-08-25T06:31:20;11.70;;;6.47;;
5137;SDS011;53959;53.626;11.410;2022-08-25T06:33:46;15.50;;;6.80;;
5137;SDS011;53959;53.626;11.410;2022-08-25T06:36:12;12.57;;;6.10;;
5137;SDS011;53959;53.626;11.410;2022-08-25T06:38:39;15.43;;;6.23;;
5137;SDS011;53959;53.626;11.410;2022-08-25T06:41:05;18.30;;;6.90;;
5137;SDS011;53959;53.626;11.410;2022-08-25T06:43:32;19.27;;;6.40;;
5137;SDS011;53959;53.626;11.410;2022-08-25T06:46:06;11.83;;;6.23;;
5137;SDS011;53959;53.626;11.410;2022-08-25T06:48:36;15.80;;;6.33;;
5137;SDS011;53959;53.626;11.410;2022-08-25T06:51:10;12.03;;;7.20;;
5137;SDS011;53959;53.626;11.410;2022-08-25T06:53:37;12.97;;;6.60;;
5137;SDS011;53959;53.626;11.410;2022-08-25T06:56:03;13.83;;;6.67;;
5137;SDS011;53959;53.626;11.410;2022-08-25T06:58:30;16.60;;;6.17;;
5137;SDS011;53959;53.626;11.410;2022-08-25T07:00:56;18.57;;;6.97;;
5137;SDS011;53959;53.626;11.410;2022-08-25T07:03:29;10.17;;;6.37;;
5137;SDS011;53959;53.626;11.410;2022-08-25T07:05:55;13.13;;;6.83;;
5137;SDS011;53959;53.626;11.410;2022-08-25T07:08:21;18.23;;;5.87;;
5137;SDS011;53959;53.626;11.410;2022-08-25T07:10:47;11.03;;;5.57;;
5137;SDS011;53959;53.626;11.410;2022-08-25T07:13:12;10.07;;;5.37;;
5137;SDS011;53959;53.626;11.410;2022-08-25T07:15:39;14.73;;;6.80;;
5137;SDS011;53959;53.626;11.410;2022-08-25T07:18:05;7.50;;;5.43;;
5137;SDS011;53959;53.626;11.410;2022-08-25T07:20:34;10.83;;;4.60;;
5137;SDS011;53959;53.626;11.410;2022-08-25T07:23:00;19.27;;;4.63;;
5137;SDS011;53959;53.626;11.410;2022-08-25T07:25:26;11.00;;;5.43;;
5137;SDS011;53959;53.626;11.410;2022-08-25T07:27:52;14.23;;;4.90;;
5137;SDS011;53959;53.626;11.410;2022-08-25T07:30:18;9.83;;;4.90;;
5137;SDS011;53959;53.626;11.410;2022-08-25T07:32:44;10.47;;;4.80;;
5137;SDS011;53959;53.626;11.410;2022-08-25T07:35:10;10.43;;;5.20;;
5137;SDS011;53959;53.626;11.410;2022-08-25T07:37:43;9.87;;;5.23;;
5137;SDS011;53959;53.626;11.410;2022-08-25T07:40:15;12.47;;;5.27;;
5137;SDS011;53959;53.626;11.410;2022-08-25T07:42:50;11.23;;;5.90;;
5137;SDS011;53959;53.626;11.410;2022-08-25T07:45:17;10.97;;;5.30;;
5137;SDS011;53959;53.626;11.410;2022-08-25T07:47:44;12.10;;;5.70;;
5137;SDS011;53959;53.626;11.410;2022-08-25T07:50:10;9.43;;;5.73;;
5137;SDS011;53959;53.626;11.410;2022-08-25T07:52:37;7.50;;;5.20;;
5137;SDS011;53959;53.626;11.410;2022-08-25T07:55:03;13.80;;;5.50;;
5137;SDS011;53959;53.626;11.410;2022-08-25T07:57:30;12.20;;;6.63;;
5137;SDS011;53959;53.626;11.410;2022-08-25T07:59:56;9.93;;;5.53;;
5137;SDS011;53959;53.626;11.410;2022-08-25T08:02:22;11.67;;;5.77;;
5137;SDS011;53959;53.626;11.410;2022-08-25T08:04:48;9.23;;;5.73;;
5137;SDS011;53959;53.626;11.410;2022-08-25T08:07:19;15.73;;;6.30;;
5137;SDS011;53959;53.626;11.410;2022-08-25T08:09:49;9.70;;;5.77;;
5137;SDS011;53959;53.626;11.410;2022-08-25T08:12:16;9.80;;;5.30;;
5137;SDS011;53959;53.626;11.410;2022-08-25T08:14:41;16.83;;;5.87;;
5137;SDS011;53959;53.626;11.410;2022-08-25T08:17:08;9.73;;;5.30;;
5137;SDS011;53959;53.626;11.410;2022-08-25T08:19:34;10.30;;;5.47;;
5137;SDS011;53959;53.626;11.410;2022-08-25T08:22:00;10.50;;;5.10;;
5137;SDS011;53959;53.626;11.410;2022-08-25T08:24:31;6.83;;;4.40;;
5137;SDS011;53959;53.626;11.410;2022-08-25T08:27:03;11.13;;;4.60;;
5137;SDS011;53959;53.626;11.410;2022-08-25T08:29:30;9.73;;;4.47;;
5137;SDS011;53959;53.626;11.410;2022-08-25T08:31:56;10.23;;;4.23;;
5137;SDS011;53959;53.626;11.410;2022-08-25T08:34:22;8.63;;;4.10;;
5137;SDS011;53959;53.626;11.410;2022-08-25T08:36:48;8.90;;;3.63;;
5137;SDS011;53959;53.626;11.410;2022-08-25T08:39:13;10.03;;;3.70;;
5137;SDS011;53959;53.626;11.410;2022-08-25T08:50:28;9.67;;;3.50;;
5137;SDS011;53959;53.626;11.410;2022-08-25T08:55:42;12.10;;;3.27;;
5137;SDS011;53959;53.626;11.410;2022-08-25T08:58:10;10.03;;;3.20;;
5137;SDS011;53959;53.626;11.410;2022-08-25T09:00:45;7.73;;;3.40;;
5137;SDS011;53959;53.626;11.410;2022-08-25T09:03:17;11.03;;;3.70;;
5137;SDS011;53959;53.626;11.410;2022-08-25T09:05:59;4.60;;;3.23;;
5137;SDS011;53959;53.626;11.410;2022-08-25T09:08:29;5.67;;;3.17;;
5137;SDS011;53959;53.626;11.410;2022-08-25T09:13:48;4.13;;;2.90;;
5137;SDS011;53959;53.626;11.410;2022-08-25T09:25:10;8.03;;;2.77;;
5137;SDS011;53959;53.626;11.410;2022-08-25T09:30:19;3.23;;;2.93;;
5137;SDS011;53959;53.626;11.410;2022-08-25T09:32:48;6.73;;;2.93;;
5137;SDS011;53959;53.626;11.410;2022-08-25T09:35:26;4.83;;;3.40;;
5137;SDS011;53959;53.626;11.410;2022-08-25T09:38:03;4.60;;;2.87;;
5137;SDS011;53959;53.626;11.410;2022-08-25T09:40:31;14.63;;;3.27;;
5137;SDS011;53959;53.626;11.410;2022-08-25T09:43:00;5.40;;;2.97;;
5137;SDS011;53959;53.626;11.410;2022-08-25T09:45:34;8.10;;;4.03;;
5137;SDS011;53959;53.626;11.410;2022-08-25T09:48:18;6.17;;;4.30;;
5137;SDS011;53959;53.626;11.410;2022-08-25T09:50:46;11.73;;;4.10;;
5137;SDS011;53959;53.626;11.410;2022-08-25T09:53:13;5.90;;;4.03;;
5137;SDS011;53959;53.626;11.410;2022-08-25T09:55:42;13.33;;;4.43;;
5137;SDS011;53959;53.626;11.410;2022-08-25T09:58:18;7.47;;;4.63;;
5137;SDS011;53959;53.626;11.410;2022-08-25T10:01:20;15.63;;;4.70;;
5137;SDS011;53959;53.626;11.410;2022-08-25T10:03:54;13.40;;;4.40;;
5137;SDS011;53959;53.626;11.410;2022-08-25T10:06:23;9.33;;;4.73;;
5137;SDS011;53959;53.626;11.410;2022-08-25T10:08:58;19.33;;;5.30;;
5137;SDS011;53959;53.626;11.410;2022-08-25T10:11:30;13.70;;;5.17;;
5137;SDS011;53959;53.626;11.410;2022-08-25T10:14:05;8.43;;;4.10;;
5137;SDS011;53959;53.626;11.410;2022-08-25T10:16:38;6.40;;;5.40;;
5137;SDS011;53959;53.626;11.410;2022-08-25T10:19:20;10.20;;;4.60;;
5137;SDS011;53959;53.626;11.410;2022-08-25T10:22:09;9.57;;;4.83;;
5137;SDS011;53959;53.626;11.410;2022-08-25T10:24:44;4.60;;;4.20;;
5137;SDS011;53959;53.626;11.410;2022-08-25T10:27:44;10.27;;;4.47;;
5137;SDS011;53959;53.626;11.410;2022-08-25T10:30:12;10.20;;;5.00;;
5137;SDS011;53959;53.626;11.410;2022-08-25T10:32:45;6.10;;;4.27;;
5137;SDS011;53959;53.626;11.410;2022-08-25T10:35:34;9.60;;;4.60;;
5137;SDS011;53959;53.626;11.410;2022-08-25T10:46:15;12.20;;;5.00;;
5137;SDS011;53959;53.626;11.410;2022-08-25T10:51:54;10.93;;;4.50;;
5137;SDS011;53959;53.626;11.410;2022-08-25T10:54:41;9.33;;;4.10;;
5137;SDS011;53959;53.626;11.410;2022-08-25T10:57:50;10.43;;;4.10;;
5137;SDS011;53959;53.626;11.410;2022-08-25T11:00:19;7.80;;;3.80;;
5137;SDS011;53959;53.626;11.410;2022-08-25T11:11:12;11.83;;;4.90;;
5137;SDS011;53959;53.626;11.410;2022-08-25T11:13:56;7.43;;;3.90;;
5137;SDS011;53959;53.626;11.410;2022-08-25T11:16:35;8.07;;;4.33;;
5137;SDS011;53959;53.626;11.410;2022-08-25T11:27:42;15.10;;;4.50;;
5137;SDS011;53959;53.626;11.410;2022-08-25T11:30:10;15.50;;;3.90;;
5137;SDS011;53959;53.626;11.410;2022-08-25T11:32:38;9.30;;;4.37;;
5137;SDS011;53959;53.626;11.410;2022-08-25T11:35:09;8.70;;;3.83;;
5137;SDS011;53959;53.626;11.410;2022-08-25T11:37:39;14.07;;;4.07;;
5137;SDS011;53959;53.626;11.410;2022-08-25T11:43:51;5.07;;;3.77;;
5137;SDS011;53959;53.626;11.410;2022-08-25T11:46:15;11.37;;;3.90;;
5137;SDS011;53959;53.626;11.410;2022-08-25T11:51:52;9.60;;;3.93;;
5137;SDS011;53959;53.626;11.410;2022-08-25T12:05:10;10.93;;;4.27;;
5137;SDS011;53959;53.626;11.410;2022-08-25T12:10:11;7.60;;;3.80;;
5137;SDS011;53959;53.626;11.410;2022-08-25T12:18:05;6.33;;;4.20;;
5137;SDS011;53959;53.626;11.410;2022-08-25T12:21:13;11.33;;;4.27;;
5137;SDS011;53959;53.626;11.410;2022-08-25T12:23:38;3.37;;;3.13;;
5137;SDS011;53959;53.626;11.410;2022-08-25T12:26:15;14.73;;;4.73;;
5137;SDS011;53959;53.626;11.410;2022-08-25T12:37:15;9.13;;;4.00;;
5137;SDS011;53959;53.626;11.410;2022-08-25T12:42:20;20.70;;;3.87;;
5137;SDS011;53959;53.626;11.410;2022-08-25T12:44:47;9.23;;;4.13;;
5137;SDS011;53959;53.626;11.410;2022-08-25T12:47:34;5.80;;;3.60;;
5137;SDS011;53959;53.626;11.410;2022-08-25T12:53:20;9.43;;;3.23;;
5137;SDS011;53959;53.626;11.410;2022-08-25T13:04:36;6.17;;;3.10;;
5137;SDS011;53959;53.626;11.410;2022-08-25T13:15:45;5.68;;;2.40;;
5137;SDS011;53959;53.626;11.410;2022-08-25T13:18:25;6.47;;;2.75;;
5137;SDS011;53959;53.626;11.410;2022-08-25T13:20:59;4.90;;;2.53;;
5137;SDS011;53959;53.626;11.410;2022-08-25T13:23:28;7.37;;;2.70;;
5137;SDS011;53959;53.626;11.410;2022-08-25T13:25:58;7.30;;;2.73;;
5137;SDS011;53959;53.626;11.410;2022-08-25T13:28:32;14.17;;;3.30;;
5137;SDS011;53959;53.626;11.410;2022-08-25T13:31:21;4.60;;;2.67;;
5137;SDS011;53959;53.626;11.410;2022-08-25T13:33:53;3.73;;;2.97;;
5137;SDS011;53959;53.626;11.410;2022-08-25T13:36:22;8.23;;;3.27;;
5137;SDS011;53959;53.626;11.410;2022-08-25T13:39:17;6.17;;;3.20;;
5137;SDS011;53959;53.626;11.410;2022-08-25T13:41:49;4.70;;;2.77;;
5137;SDS011;53959;53.626;11.410;2022-08-25T13:44:16;13.60;;;3.57;;
5137;SDS011;53959;53.626;11.410;2022-08-25T13:46:44;4.43;;;3.00;;
5137;SDS011;53959;53.626;11.410;2022-08-25T13:49:11;6.60;;;2.70;;
5137;SDS011;53959;53.626;11.410;2022-08-25T13:51:38;6.70;;;3.30;;
5137;SDS011;53959;53.626;11.410;2022-08-25T13:54:26;5.97;;;3.13;;
5137;SDS011;53959;53.626;11.410;2022-08-25T13:57:20;6.10;;;2.80;;
5137;SDS011;53959;53.626;11.410;2022-08-25T13:59:52;9.73;;;2.63;;
5137;SDS011;53959;53.626;11.410;2022-08-25T14:02:39;4.47;;;2.80;;
5137;SDS011;53959;53.626;11.410;2022-08-25T14:05:12;4.73;;;2.93;;
5137;SDS011;53959;53.626;11.410;2022-08-25T14:07:51;6.10;;;2.83;;
5137;SDS011;53959;53.626;11.410;2022-08-25T14:13:15;4.13;;;2.70;;
5137;SDS011;53959;53.626;11.410;2022-08-25T14:15:53;7.50;;;2.87;;
5137;SDS011;53959;53.626;11.410;2022-08-25T14:18:20;4.17;;;2.70;;
5137;SDS011;53959;53.626;11.410;2022-08-25T14:20:51;7.70;;;2.90;;
5137;SDS011;53959;53.626;11.410;2022-08-25T14:23:22;5.13;;;2.90;;
5137;SDS011;53959;53.626;11.410;2022-08-25T14:25:51;11.33;;;3.80;;
5137;SDS011;53959;53.626;11.410;2022-08-25T14:28:19;5.67;;;2.77;;
5137;SDS011;53959;53.626;11.410;2022-08-25T14:30:52;4.73;;;2.73;;
5137;SDS011;53959;53.626;11.410;2022-08-25T14:33:26;9.03;;;2.70;;
5137;SDS011;53959;53.626;11.410;2022-08-25T14:35:54;6.27;;;2.87;;
5137;SDS011;53959;53.626;11.410;2022-08-25T14:38:23;8.47;;;3.30;;
5137;SDS011;53959;53.626;11.410;2022-08-25T14:40:49;6.30;;;2.90;;
5137;SDS011;53959;53.626;11.410;2022-08-25T14:43:16;5.53;;;2.67;;
5137;SDS011;53959;53.626;11.410;2022-08-25T14:45:42;8.27;;;2.70;;
5137;SDS011;53959;53.626;11.410;2022-08-25T14:50:50;4.53;;;2.90;;
5137;SDS011;53959;53.626;11.410;2022-08-25T14:53:18;3.10;;;2.90;;
5137;SDS011;53959;53.626;11.410;2022-08-25T14:55:44;4.40;;;2.93;;
5137;SDS011;53959;53.626;11.410;2022-08-25T14:58:09;7.23;;;3.23;;
5137;SDS011;53959;53.626;11.410;2022-08-25T15:00:36;4.20;;;2.80;;
5137;SDS011;53959;53.626;11.410;2022-08-25T15:03:06;6.40;;;3.23;;
5137;SDS011;53959;53.626;11.410;2022-08-25T15:05:31;4.07;;;2.90;;
5137;SDS011;53959;53.626;11.410;2022-08-25T15:07:57;12.03;;;3.43;;
5137;SDS011;53959;53.626;11.410;2022-08-25T15:10:41;11.30;;;3.20;;
5137;SDS011;53959;53.626;11.410;2022-08-25T15:13:07;4.10;;;2.97;;
5137;SDS011;53959;53.626;11.410;2022-08-25T15:15:38;6.40;;;3.13;;
5137;SDS011;53959;53.626;11.410;2022-08-25T15:18:07;6.83;;;3.50;;
5137;SDS011;53959;53.626;11.410;2022-08-25T15:20:32;14.90;;;3.57;;
5137;SDS011;53959;53.626;11.410;2022-08-25T15:22:59;7.33;;;3.17;;
5137;SDS011;53959;53.626;11.410;2022-08-25T15:25:25;4.20;;;3.23;;
5137;SDS011;53959;53.626;11.410;2022-08-25T15:27:50;4.07;;;2.80;;
5137;SDS011;53959;53.626;11.410;2022-08-25T15:30:16;9.20;;;3.43;;
5137;SDS011;53959;53.626;11.410;2022-08-25T15:32:42;6.80;;;3.43;;
5137;SDS011;53959;53.626;11.410;2022-08-25T15:35:08;4.40;;;3.30;;
5137;SDS011;53959;53.626;11.410;2022-08-25T15:37:34;11.17;;;3.37;;
5137;SDS011;53959;53.626;11.410;2022-08-25T15:39:59;5.97;;;3.40;;
5137;SDS011;53959;53.626;11.410;2022-08-25T15:42:26;4.70;;;3.50;;
5137;SDS011;53959;53.626;11.410;2022-08-25T15:44:52;10.57;;;3.33;;
5137;SDS011;53959;53.626;11.410;2022-08-25T15:47:17;6.97;;;3.53;;
5137;SDS011;53959;53.626;11.410;2022-08-25T15:49:43;20.57;;;3.53;;
5137;SDS011;53959;53.626;11.410;2022-08-25T15:52:09;7.73;;;3.53;;
5137;SDS011;53959;53.626;11.410;2022-08-25T15:54:36;11.90;;;3.70;;
5137;SDS011;53959;53.626;11.410;2022-08-25T15:57:01;4.20;;;3.17;;
5137;SDS011;53959;53.626;11.410;2022-08-25T15:59:27;7.97;;;3.23;;
5137;SDS011;53959;53.626;11.410;2022-08-25T16:01:53;5.53;;;3.47;;
5137;SDS011;53959;53.626;11.410;2022-08-25T16:04:20;7.20;;;3.77;;
5137;SDS011;53959;53.626;11.410;2022-08-25T16:06:46;8.60;;;3.90;;
5137;SDS011;53959;53.626;11.410;2022-08-25T16:09:12;5.73;;;3.53;;
5137;SDS011;53959;53.626;11.410;2022-08-25T16:11:38;11.03;;;3.20;;
5137;SDS011;53959;53.626;11.410;2022-08-25T16:14:04;12.10;;;3.60;;
5137;SDS011;53959;53.626;11.410;2022-08-25T16:16:30;5.57;;;3.47;;
5137;SDS011;53959;53.626;11.410;2022-08-25T16:18:56;11.40;;;4.63;;
5137;SDS011;53959;53.626;11.410;2022-08-25T16:21:23;9.30;;;5.17;;
5137;SDS011;53959;53.626;11.410;2022-08-25T16:23:55;9.50;;;4.10;;
5137;SDS011;53959;53.626;11.410;2022-08-25T16:26:23;6.63;;;3.97;;
5137;SDS011;53959;53.626;11.410;2022-08-25T16:28:50;6.87;;;4.30;;
5137;SDS011;53959;53.626;11.410;2022-08-25T16:31:16;9.33;;;4.73;;
5137;SDS011;53959;53.626;11.410;2022-08-25T16:33:42;17.10;;;5.70;;
5137;SDS011;53959;53.626;11.410;2022-08-25T16:36:09;6.97;;;4.67;;
5137;SDS011;53959;53.626;11.410;2022-08-25T16:38:37;13.73;;;6.90;;
5137;SDS011;53959;53.626;11.410;2022-08-25T16:41:04;14.27;;;5.50;;
5137;SDS011;53959;53.626;11.410;2022-08-25T16:43:34;20.17;;;8.37;;
5137;SDS011;53959;53.626;11.410;2022-08-25T16:46:00;10.67;;;5.40;;
5137;SDS011;53959;53.626;11.410;2022-08-25T16:48:29;19.70;;;7.27;;